sensor_id;sensor_type;location;lat;lon;timestamp;P1;durP1;ratioP1;P2;durP2;ratioP2
12784;SDS011;6456;42.680;23.260;2023-12-29T00:02:00;46.57;;;28.00;;
12784;SDS011;6456;42.680;23.260;2023-12-29T00:04:30;42.43;;;26.67;;
12784;SDS011;6456;42.680;23.260;2023-12-29T00:06:59;35.33;;;24.20;;
12784;SDS011;6456;42.680;23.260;2023-12-29T00:09:38;32.23;;;22.90;;
12784;SDS011;6456;42.680;23.260;2023-12-29T00:12:08;33.60;;;23.00;;
12784;SDS011;6456;42.680;23.260;2023-12-29T00:14:36;38.77;;;24.67;;
12784;SDS011;6456;42.680;23.260;2023-12-29T00:17:13;38.47;;;24.60;;
12784;SDS011;6456;42.680;23.260;2023-12-29T00:19:43;34.63;;;24.73;;
12784;SDS011;6456;42.680;23.260;2023-12-29T00:22:11;38.93;;;25.73;;
12784;SDS011;6456;42.680;23.260;2023-12-29T00:24:58;37.47;;;25.60;;
12784;SDS011;6456;42.680;23.260;2023-12-29T00:27:26;37.43;;;24.73;;
12784;SDS011;6456;42.680;23.260;2023-12-29T00:30:03;35.00;;;24.43;;
12784;SDS011;6456;42.680;23.260;2023-12-29T00:32:36;39.63;;;24.47;;
12784;SDS011;6456;42.680;23.260;2023-12-29T00:35:04;36.30;;;25.13;;
12784;SDS011;6456;42.680;23.260;2023-12-29T00:37:31;34.23;;;24.10;;
12784;SDS011;6456;42.680;23.260;2023-12-29T00:39:59;35.03;;;23.53;;
12784;SDS011;6456;42.680;23.260;2023-12-29T00:42:26;36.40;;;25.40;;
12784;SDS011;6456;42.680;23.260;2023-12-29T00:44:53;32.77;;;23.90;;
12784;SDS011;6456;42.680;23.260;2023-12-29T00:47:21;34.77;;;22.10;;
12784;SDS011;6456;42.680;23.260;2023-12-29T00:49:51;31.63;;;21.50;;
12784;SDS011;6456;42.680;23.260;2023-12-29T00:55:06;43.07;;;28.87;;
12784;SDS011;6456;42.680;23.260;2023-12-29T00:57:36;42.53;;;28.87;;
12784;SDS011;6456;42.680;23.260;2023-12-29T01:00:19;47.17;;;29.20;;
12784;SDS011;6456;42.680;23.260;2023-12-29T01:02:58;45.43;;;29.00;;
12784;SDS011;6456;42.680;23.260;2023-12-29T01:05:36;47.43;;;31.47;;
12784;SDS011;6456;42.680;23.260;2023-12-29T01:08:13;46.47;;;30.77;;
12784;SDS011;6456;42.680;23.260;2023-12-29T01:10:44;42.80;;;28.93;;
12784;SDS011;6456;42.680;23.260;2023-12-29T01:13:17;46.97;;;29.10;;
12784;SDS011;6456;42.680;23.260;2023-12-29T01:15:44;42.00;;;27.93;;
12784;SDS011;6456;42.680;23.260;2023-12-29T01:18:11;40.50;;;25.67;;
12784;SDS011;6456;42.680;23.260;2023-12-29T01:20:40;39.47;;;25.60;;
12784;SDS011;6456;42.680;23.260;2023-12-29T01:23:08;37.67;;;26.50;;
12784;SDS011;6456;42.680;23.260;2023-12-29T01:25:37;39.50;;;27.03;;
12784;SDS011;6456;42.680;23.260;2023-12-29T01:28:05;40.10;;;27.57;;
12784;SDS011;6456;42.680;23.260;2023-12-29T01:30:32;36.20;;;25.53;;
12784;SDS011;6456;42.680;23.260;2023-12-29T01:33:04;44.60;;;28.53;;
12784;SDS011;6456;42.680;23.260;2023-12-29T01:35:32;40.93;;;26.90;;
12784;SDS011;6456;42.680;23.260;2023-12-29T01:38:03;38.13;;;26.63;;
12784;SDS011;6456;42.680;23.260;2023-12-29T01:40:47;46.17;;;29.07;;
12784;SDS011;6456;42.680;23.260;2023-12-29T01:43:15;41.53;;;28.83;;
12784;SDS011;6456;42.680;23.260;2023-12-29T01:45:42;40.90;;;28.27;;
12784;SDS011;6456;42.680;23.260;2023-12-29T01:48:11;47.03;;;30.80;;
12784;SDS011;6456;42.680;23.260;2023-12-29T01:50:40;42.73;;;29.80;;
12784;SDS011;6456;42.680;23.260;2023-12-29T01:53:09;38.67;;;28.00;;
12784;SDS011;6456;42.680;23.260;2023-12-29T01:55:37;39.90;;;27.80;;
12784;SDS011;6456;42.680;23.260;2023-12-29T01:58:04;45.90;;;28.00;;
12784;SDS011;6456;42.680;23.260;2023-12-29T02:00:33;42.80;;;27.20;;
12784;SDS011;6456;42.680;23.260;2023-12-29T02:03:01;43.07;;;28.07;;
12784;SDS011;6456;42.680;23.260;2023-12-29T02:05:29;39.37;;;27.07;;
12784;SDS011;6456;42.680;23.260;2023-12-29T02:08:00;40.40;;;26.67;;
12784;SDS011;6456;42.680;23.260;2023-12-29T02:10:40;36.43;;;25.50;;
12784;SDS011;6456;42.680;23.260;2023-12-29T02:13:11;37.93;;;25.93;;
12784;SDS011;6456;42.680;23.260;2023-12-29T02:15:55;35.30;;;24.43;;
12784;SDS011;6456;42.680;23.260;2023-12-29T02:18:36;36.77;;;24.10;;
12784;SDS011;6456;42.680;23.260;2023-12-29T02:21:12;33.20;;;23.73;;
12784;SDS011;6456;42.680;23.260;2023-12-29T02:23:49;39.17;;;26.13;;
12784;SDS011;6456;42.680;23.260;2023-12-29T02:26:27;37.53;;;24.93;;
12784;SDS011;6456;42.680;23.260;2023-12-29T02:29:02;30.67;;;21.93;;
12784;SDS011;6456;42.680;23.260;2023-12-29T02:31:35;27.93;;;20.00;;
12784;SDS011;6456;42.680;23.260;2023-12-29T02:34:06;27.83;;;19.27;;
12784;SDS011;6456;42.680;23.260;2023-12-29T02:36:36;27.03;;;18.50;;
12784;SDS011;6456;42.680;23.260;2023-12-29T02:39:12;28.70;;;20.27;;
12784;SDS011;6456;42.680;23.260;2023-12-29T02:41:44;28.47;;;19.70;;
12784;SDS011;6456;42.680;23.260;2023-12-29T02:44:20;28.40;;;20.10;;
12784;SDS011;6456;42.680;23.260;2023-12-29T02:46:51;30.63;;;19.97;;
12784;SDS011;6456;42.680;23.260;2023-12-29T02:49:21;29.73;;;21.90;;
12784;SDS011;6456;42.680;23.260;2023-12-29T02:51:48;32.90;;;22.57;;
12784;SDS011;6456;42.680;23.260;2023-12-29T02:54:21;32.27;;;23.27;;
12784;SDS011;6456;42.680;23.260;2023-12-29T02:56:57;32.70;;;22.13;;
12784;SDS011;6456;42.680;23.260;2023-12-29T02:59:34;33.63;;;22.20;;
12784;SDS011;6456;42.680;23.260;2023-12-29T03:02:12;29.13;;;20.43;;
12784;SDS011;6456;42.680;23.260;2023-12-29T03:04:44;33.70;;;21.67;;
12784;SDS011;6456;42.680;23.260;2023-12-29T03:07:22;34.40;;;21.67;;
12784;SDS011;6456;42.680;23.260;2023-12-29T03:09:58;39.27;;;25.07;;
12784;SDS011;6456;42.680;23.260;2023-12-29T03:12:30;38.50;;;26.43;;
12784;SDS011;6456;42.680;23.260;2023-12-29T03:15:00;44.43;;;28.47;;
12784;SDS011;6456;42.680;23.260;2023-12-29T03:17:36;43.37;;;29.03;;
12784;SDS011;6456;42.680;23.260;2023-12-29T03:20:26;41.47;;;27.20;;
12784;SDS011;6456;42.680;23.260;2023-12-29T03:23:02;44.20;;;30.87;;
12784;SDS011;6456;42.680;23.260;2023-12-29T03:25:35;50.37;;;31.20;;
12784;SDS011;6456;42.680;23.260;2023-12-29T03:28:08;41.20;;;29.87;;
12784;SDS011;6456;42.680;23.260;2023-12-29T03:30:55;42.47;;;28.80;;
12784;SDS011;6456;42.680;23.260;2023-12-29T03:33:33;46.67;;;32.10;;
12784;SDS011;6456;42.680;23.260;2023-12-29T03:36:01;45.37;;;31.00;;
12784;SDS011;6456;42.680;23.260;2023-12-29T03:38:28;49.00;;;33.03;;
12784;SDS011;6456;42.680;23.260;2023-12-29T03:40:58;54.90;;;33.40;;
12784;SDS011;6456;42.680;23.260;2023-12-29T03:43:31;45.90;;;30.07;;
12784;SDS011;6456;42.680;23.260;2023-12-29T03:46:05;41.50;;;29.73;;
12784;SDS011;6456;42.680;23.260;2023-12-29T03:51:32;36.17;;;25.17;;
12784;SDS011;6456;42.680;23.260;2023-12-29T03:53:59;40.93;;;26.47;;
12784;SDS011;6456;42.680;23.260;2023-12-29T03:56:27;41.37;;;28.17;;
12784;SDS011;6456;42.680;23.260;2023-12-29T03:58:56;39.30;;;26.77;;
12784;SDS011;6456;42.680;23.260;2023-12-29T04:01:25;41.13;;;27.43;;
12784;SDS011;6456;42.680;23.260;2023-12-29T04:03:54;35.33;;;25.10;;
12784;SDS011;6456;42.680;23.260;2023-12-29T04:06:21;36.83;;;25.57;;
12784;SDS011;6456;42.680;23.260;2023-12-29T04:08:49;35.30;;;25.20;;
12784;SDS011;6456;42.680;23.260;2023-12-29T04:11:16;39.13;;;28.03;;
12784;SDS011;6456;42.680;23.260;2023-12-29T04:13:43;42.70;;;29.33;;
12784;SDS011;6456;42.680;23.260;2023-12-29T04:16:18;42.57;;;28.57;;
12784;SDS011;6456;42.680;23.260;2023-12-29T04:18:51;45.70;;;30.70;;
12784;SDS011;6456;42.680;23.260;2023-12-29T04:21:22;40.47;;;29.37;;
12784;SDS011;6456;42.680;23.260;2023-12-29T04:24:07;45.13;;;30.53;;
12784;SDS011;6456;42.680;23.260;2023-12-29T04:26:35;43.67;;;30.47;;
12784;SDS011;6456;42.680;23.260;2023-12-29T04:29:02;45.17;;;30.90;;
12784;SDS011;6456;42.680;23.260;2023-12-29T04:31:31;46.20;;;31.00;;
12784;SDS011;6456;42.680;23.260;2023-12-29T04:33:59;43.20;;;30.80;;
12784;SDS011;6456;42.680;23.260;2023-12-29T04:36:31;47.90;;;31.67;;
12784;SDS011;6456;42.680;23.260;2023-12-29T04:39:04;41.83;;;29.20;;
12784;SDS011;6456;42.680;23.260;2023-12-29T04:41:35;46.07;;;30.97;;
12784;SDS011;6456;42.680;23.260;2023-12-29T04:44:03;43.03;;;30.67;;
12784;SDS011;6456;42.680;23.260;2023-12-29T04:46:39;43.47;;;27.90;;
12784;SDS011;6456;42.680;23.260;2023-12-29T04:49:09;46.20;;;28.90;;
12784;SDS011;6456;42.680;23.260;2023-12-29T04:51:48;40.70;;;28.60;;
12784;SDS011;6456;42.680;23.260;2023-12-29T04:54:21;42.03;;;30.40;;
12784;SDS011;6456;42.680;23.260;2023-12-29T04:56:51;40.33;;;28.23;;
12784;SDS011;6456;42.680;23.260;2023-12-29T04:59:24;42.37;;;27.47;;
12784;SDS011;6456;42.680;23.260;2023-12-29T05:01:53;41.57;;;27.87;;
12784;SDS011;6456;42.680;23.260;2023-12-29T05:04:20;38.70;;;26.63;;
12784;SDS011;6456;42.680;23.260;2023-12-29T05:07:20;43.23;;;29.17;;
12784;SDS011;6456;42.680;23.260;2023-12-29T05:09:51;41.73;;;28.53;;
12784;SDS011;6456;42.680;23.260;2023-12-29T05:12:32;43.20;;;28.90;;
12784;SDS011;6456;42.680;23.260;2023-12-29T05:19:16;40.10;;;26.93;;
12784;SDS011;6456;42.680;23.260;2023-12-29T05:21:57;42.27;;;28.30;;
12784;SDS011;6456;42.680;23.260;2023-12-29T05:24:50;46.63;;;30.07;;
12784;SDS011;6456;42.680;23.260;2023-12-29T05:27:42;43.23;;;28.53;;
12784;SDS011;6456;42.680;23.260;2023-12-29T05:30:30;43.73;;;28.97;;
12784;SDS011;6456;42.680;23.260;2023-12-29T05:33:16;52.43;;;33.10;;
12784;SDS011;6456;42.680;23.260;2023-12-29T05:35:45;47.90;;;33.53;;
12784;SDS011;6456;42.680;23.260;2023-12-29T05:38:12;52.27;;;33.40;;
12784;SDS011;6456;42.680;23.260;2023-12-29T05:40:39;43.87;;;28.37;;
12784;SDS011;6456;42.680;23.260;2023-12-29T05:43:06;42.63;;;28.63;;
12784;SDS011;6456;42.680;23.260;2023-12-29T05:45:34;43.43;;;29.80;;
12784;SDS011;6456;42.680;23.260;2023-12-29T05:48:01;43.27;;;30.87;;
12784;SDS011;6456;42.680;23.260;2023-12-29T05:50:28;53.33;;;34.10;;
12784;SDS011;6456;42.680;23.260;2023-12-29T05:52:57;52.33;;;35.00;;
12784;SDS011;6456;42.680;23.260;2023-12-29T05:55:27;47.23;;;33.13;;
12784;SDS011;6456;42.680;23.260;2023-12-29T05:57:55;47.17;;;31.97;;
12784;SDS011;6456;42.680;23.260;2023-12-29T06:00:23;41.73;;;31.43;;
12784;SDS011;6456;42.680;23.260;2023-12-29T06:02:52;49.77;;;32.50;;
12784;SDS011;6456;42.680;23.260;2023-12-29T06:05:20;51.33;;;33.20;;
12784;SDS011;6456;42.680;23.260;2023-12-29T06:07:47;49.87;;;35.13;;
12784;SDS011;6456;42.680;23.260;2023-12-29T06:10:16;51.63;;;33.40;;
12784;SDS011;6456;42.680;23.260;2023-12-29T06:12:43;52.20;;;34.97;;
12784;SDS011;6456;42.680;23.260;2023-12-29T06:15:16;51.83;;;35.60;;
12784;SDS011;6456;42.680;23.260;2023-12-29T06:17:45;51.13;;;35.13;;
12784;SDS011;6456;42.680;23.260;2023-12-29T06:20:13;51.47;;;36.27;;
12784;SDS011;6456;42.680;23.260;2023-12-29T06:22:40;59.53;;;38.87;;
12784;SDS011;6456;42.680;23.260;2023-12-29T06:25:08;75.00;;;48.43;;
12784;SDS011;6456;42.680;23.260;2023-12-29T06:27:37;82.10;;;50.70;;
12784;SDS011;6456;42.680;23.260;2023-12-29T06:30:06;80.43;;;51.17;;
12784;SDS011;6456;42.680;23.260;2023-12-29T06:32:34;78.30;;;52.30;;
12784;SDS011;6456;42.680;23.260;2023-12-29T06:35:01;76.50;;;50.40;;
12784;SDS011;6456;42.680;23.260;2023-12-29T06:37:28;71.10;;;47.93;;
12784;SDS011;6456;42.680;23.260;2023-12-29T06:39:57;74.00;;;49.77;;
12784;SDS011;6456;42.680;23.260;2023-12-29T06:42:24;74.47;;;50.03;;
12784;SDS011;6456;42.680;23.260;2023-12-29T06:44:53;68.90;;;47.93;;
12784;SDS011;6456;42.680;23.260;2023-12-29T06:47:20;64.53;;;42.80;;
12784;SDS011;6456;42.680;23.260;2023-12-29T06:49:49;62.70;;;42.43;;
12784;SDS011;6456;42.680;23.260;2023-12-29T06:52:16;64.20;;;43.53;;
12784;SDS011;6456;42.680;23.260;2023-12-29T06:54:43;69.10;;;44.23;;
12784;SDS011;6456;42.680;23.260;2023-12-29T06:57:10;64.10;;;45.77;;
12784;SDS011;6456;42.680;23.260;2023-12-29T06:59:39;72.43;;;47.00;;
12784;SDS011;6456;42.680;23.260;2023-12-29T07:02:08;63.43;;;42.63;;
12784;SDS011;6456;42.680;23.260;2023-12-29T07:04:35;62.57;;;41.63;;
12784;SDS011;6456;42.680;23.260;2023-12-29T07:07:02;57.53;;;41.17;;
12784;SDS011;6456;42.680;23.260;2023-12-29T07:09:30;65.17;;;42.50;;
12784;SDS011;6456;42.680;23.260;2023-12-29T07:12:15;62.20;;;42.93;;
12784;SDS011;6456;42.680;23.260;2023-12-29T07:14:43;65.80;;;45.93;;
12784;SDS011;6456;42.680;23.260;2023-12-29T07:17:10;65.17;;;44.60;;
12784;SDS011;6456;42.680;23.260;2023-12-29T07:19:37;66.00;;;45.23;;
12784;SDS011;6456;42.680;23.260;2023-12-29T07:22:04;67.37;;;46.33;;
12784;SDS011;6456;42.680;23.260;2023-12-29T07:24:32;68.47;;;46.80;;
12784;SDS011;6456;42.680;23.260;2023-12-29T07:26:59;71.90;;;47.47;;
12784;SDS011;6456;42.680;23.260;2023-12-29T07:29:27;72.33;;;50.93;;
12784;SDS011;6456;42.680;23.260;2023-12-29T07:31:55;72.70;;;51.07;;
12784;SDS011;6456;42.680;23.260;2023-12-29T07:34:22;66.03;;;46.87;;
12784;SDS011;6456;42.680;23.260;2023-12-29T07:36:49;67.17;;;45.63;;
12784;SDS011;6456;42.680;23.260;2023-12-29T07:39:16;61.93;;;42.83;;
12784;SDS011;6456;42.680;23.260;2023-12-29T07:41:44;60.30;;;43.67;;
12784;SDS011;6456;42.680;23.260;2023-12-29T07:44:13;56.90;;;43.87;;
12784;SDS011;6456;42.680;23.260;2023-12-29T07:46:42;62.63;;;47.57;;
12784;SDS011;6456;42.680;23.260;2023-12-29T07:49:09;66.53;;;47.13;;
12784;SDS011;6456;42.680;23.260;2023-12-29T07:51:38;63.40;;;45.73;;
12784;SDS011;6456;42.680;23.260;2023-12-29T07:54:06;60.57;;;41.30;;
12784;SDS011;6456;42.680;23.260;2023-12-29T07:56:33;54.17;;;39.30;;
12784;SDS011;6456;42.680;23.260;2023-12-29T07:59:02;56.23;;;41.87;;
12784;SDS011;6456;42.680;23.260;2023-12-29T08:01:29;51.90;;;37.33;;
12784;SDS011;6456;42.680;23.260;2023-12-29T08:03:57;48.47;;;36.53;;
12784;SDS011;6456;42.680;23.260;2023-12-29T08:06:24;50.97;;;36.07;;
12784;SDS011;6456;42.680;23.260;2023-12-29T08:08:51;50.77;;;35.70;;
12784;SDS011;6456;42.680;23.260;2023-12-29T08:11:18;52.77;;;36.80;;
12784;SDS011;6456;42.680;23.260;2023-12-29T08:13:47;54.10;;;39.47;;
12784;SDS011;6456;42.680;23.260;2023-12-29T08:16:15;58.00;;;40.67;;
12784;SDS011;6456;42.680;23.260;2023-12-29T08:18:43;58.37;;;40.53;;
12784;SDS011;6456;42.680;23.260;2023-12-29T08:21:17;60.60;;;44.70;;
12784;SDS011;6456;42.680;23.260;2023-12-29T08:23:44;59.07;;;41.97;;
12784;SDS011;6456;42.680;23.260;2023-12-29T08:26:12;67.27;;;47.30;;
12784;SDS011;6456;42.680;23.260;2023-12-29T08:28:39;69.47;;;49.70;;
12784;SDS011;6456;42.680;23.260;2023-12-29T08:31:06;73.37;;;51.87;;
12784;SDS011;6456;42.680;23.260;2023-12-29T08:33:33;77.57;;;53.43;;
12784;SDS011;6456;42.680;23.260;2023-12-29T08:36:01;82.20;;;52.97;;
12784;SDS011;6456;42.680;23.260;2023-12-29T08:38:30;85.03;;;60.73;;
12784;SDS011;6456;42.680;23.260;2023-12-29T08:40:57;99.03;;;65.53;;
12784;SDS011;6456;42.680;23.260;2023-12-29T08:43:24;92.30;;;62.60;;
12784;SDS011;6456;42.680;23.260;2023-12-29T08:45:52;82.53;;;57.57;;
12784;SDS011;6456;42.680;23.260;2023-12-29T08:48:19;87.97;;;59.30;;
12784;SDS011;6456;42.680;23.260;2023-12-29T08:50:46;89.07;;;62.53;;
12784;SDS011;6456;42.680;23.260;2023-12-29T08:53:13;91.00;;;63.20;;
12784;SDS011;6456;42.680;23.260;2023-12-29T08:55:42;91.27;;;62.77;;
12784;SDS011;6456;42.680;23.260;2023-12-29T08:58:09;87.57;;;62.37;;
12784;SDS011;6456;42.680;23.260;2023-12-29T09:00:36;95.63;;;64.97;;
12784;SDS011;6456;42.680;23.260;2023-12-29T09:03:03;99.00;;;62.93;;
12784;SDS011;6456;42.680;23.260;2023-12-29T09:05:30;93.07;;;66.47;;
12784;SDS011;6456;42.680;23.260;2023-12-29T09:07:57;88.07;;;62.87;;
12784;SDS011;6456;42.680;23.260;2023-12-29T09:10:24;91.80;;;65.03;;
12784;SDS011;6456;42.680;23.260;2023-12-29T09:12:53;97.23;;;65.77;;
12784;SDS011;6456;42.680;23.260;2023-12-29T09:15:20;90.70;;;61.63;;
12784;SDS011;6456;42.680;23.260;2023-12-29T09:17:46;100.40;;;62.27;;
12784;SDS011;6456;42.680;23.260;2023-12-29T09:20:13;90.77;;;59.30;;
12784;SDS011;6456;42.680;23.260;2023-12-29T09:22:40;80.87;;;56.93;;
12784;SDS011;6456;42.680;23.260;2023-12-29T09:25:08;83.50;;;57.20;;
12784;SDS011;6456;42.680;23.260;2023-12-29T09:27:35;78.87;;;55.93;;
12784;SDS011;6456;42.680;23.260;2023-12-29T09:30:03;76.93;;;52.53;;
12784;SDS011;6456;42.680;23.260;2023-12-29T09:32:31;73.93;;;49.10;;
12784;SDS011;6456;42.680;23.260;2023-12-29T09:34:58;71.33;;;48.57;;
12784;SDS011;6456;42.680;23.260;2023-12-29T09:37:25;67.97;;;47.37;;
12784;SDS011;6456;42.680;23.260;2023-12-29T09:39:52;67.67;;;45.17;;
12784;SDS011;6456;42.680;23.260;2023-12-29T09:42:20;71.90;;;44.97;;
12784;SDS011;6456;42.680;23.260;2023-12-29T09:44:49;62.07;;;42.30;;
12784;SDS011;6456;42.680;23.260;2023-12-29T09:47:20;69.53;;;45.70;;
12784;SDS011;6456;42.680;23.260;2023-12-29T09:49:49;74.13;;;45.87;;
12784;SDS011;6456;42.680;23.260;2023-12-29T09:52:18;68.37;;;46.67;;
12784;SDS011;6456;42.680;23.260;2023-12-29T09:54:47;61.00;;;43.73;;
12784;SDS011;6456;42.680;23.260;2023-12-29T09:57:14;63.87;;;42.10;;
12784;SDS011;6456;42.680;23.260;2023-12-29T09:59:43;61.10;;;41.10;;
12784;SDS011;6456;42.680;23.260;2023-12-29T10:02:12;61.60;;;42.63;;
12784;SDS011;6456;42.680;23.260;2023-12-29T10:04:41;63.90;;;42.33;;
12784;SDS011;6456;42.680;23.260;2023-12-29T10:07:10;58.57;;;42.83;;
12784;SDS011;6456;42.680;23.260;2023-12-29T10:09:52;64.07;;;43.83;;
12784;SDS011;6456;42.680;23.260;2023-12-29T10:12:22;63.27;;;42.67;;
12784;SDS011;6456;42.680;23.260;2023-12-29T10:14:53;64.17;;;41.90;;
12784;SDS011;6456;42.680;23.260;2023-12-29T10:17:33;59.67;;;41.87;;
12784;SDS011;6456;42.680;23.260;2023-12-29T10:20:19;60.63;;;42.50;;
12784;SDS011;6456;42.680;23.260;2023-12-29T10:22:54;61.27;;;43.63;;
12784;SDS011;6456;42.680;23.260;2023-12-29T10:25:30;66.27;;;44.17;;
12784;SDS011;6456;42.680;23.260;2023-12-29T10:27:58;65.17;;;44.20;;
12784;SDS011;6456;42.680;23.260;2023-12-29T10:30:25;63.83;;;43.40;;
12784;SDS011;6456;42.680;23.260;2023-12-29T10:32:53;65.07;;;44.20;;
12784;SDS011;6456;42.680;23.260;2023-12-29T10:35:22;59.27;;;44.17;;
12784;SDS011;6456;42.680;23.260;2023-12-29T10:37:49;64.90;;;43.57;;
12784;SDS011;6456;42.680;23.260;2023-12-29T10:40:16;61.77;;;43.93;;
12784;SDS011;6456;42.680;23.260;2023-12-29T10:42:51;61.53;;;43.70;;
12784;SDS011;6456;42.680;23.260;2023-12-29T10:45:18;67.80;;;44.97;;
12784;SDS011;6456;42.680;23.260;2023-12-29T10:47:46;68.83;;;45.63;;
12784;SDS011;6456;42.680;23.260;2023-12-29T10:50:13;69.33;;;45.20;;
12784;SDS011;6456;42.680;23.260;2023-12-29T10:52:42;63.90;;;45.10;;
12784;SDS011;6456;42.680;23.260;2023-12-29T10:55:09;64.70;;;44.70;;
12784;SDS011;6456;42.680;23.260;2023-12-29T10:57:37;71.53;;;45.73;;
12784;SDS011;6456;42.680;23.260;2023-12-29T11:00:06;76.33;;;46.20;;
12784;SDS011;6456;42.680;23.260;2023-12-29T11:02:33;70.03;;;45.60;;
12784;SDS011;6456;42.680;23.260;2023-12-29T11:05:01;66.10;;;45.27;;
12784;SDS011;6456;42.680;23.260;2023-12-29T11:07:33;69.27;;;45.70;;
12784;SDS011;6456;42.680;23.260;2023-12-29T11:10:05;68.47;;;45.97;;
12784;SDS011;6456;42.680;23.260;2023-12-29T11:12:34;66.70;;;46.13;;
12784;SDS011;6456;42.680;23.260;2023-12-29T11:15:02;64.37;;;44.93;;
12784;SDS011;6456;42.680;23.260;2023-12-29T11:17:31;65.50;;;44.50;;
12784;SDS011;6456;42.680;23.260;2023-12-29T11:20:00;64.17;;;43.17;;
12784;SDS011;6456;42.680;23.260;2023-12-29T11:22:29;58.60;;;42.10;;
12784;SDS011;6456;42.680;23.260;2023-12-29T11:24:57;58.93;;;42.93;;
12784;SDS011;6456;42.680;23.260;2023-12-29T11:27:28;59.83;;;42.40;;
12784;SDS011;6456;42.680;23.260;2023-12-29T11:29:57;56.30;;;41.43;;
12784;SDS011;6456;42.680;23.260;2023-12-29T11:32:27;59.53;;;42.73;;
12784;SDS011;6456;42.680;23.260;2023-12-29T11:35:11;60.73;;;42.60;;
12784;SDS011;6456;42.680;23.260;2023-12-29T11:37:47;61.47;;;43.43;;
12784;SDS011;6456;42.680;23.260;2023-12-29T11:40:26;62.37;;;45.70;;
12784;SDS011;6456;42.680;23.260;2023-12-29T11:43:02;63.27;;;45.37;;
12784;SDS011;6456;42.680;23.260;2023-12-29T11:45:34;65.57;;;45.87;;
12784;SDS011;6456;42.680;23.260;2023-12-29T11:48:02;67.13;;;46.70;;
12784;SDS011;6456;42.680;23.260;2023-12-29T11:50:30;69.10;;;47.67;;
12784;SDS011;6456;42.680;23.260;2023-12-29T11:52:58;65.63;;;48.37;;
12784;SDS011;6456;42.680;23.260;2023-12-29T11:55:29;69.40;;;46.67;;
12784;SDS011;6456;42.680;23.260;2023-12-29T11:57:57;65.57;;;46.57;;
12784;SDS011;6456;42.680;23.260;2023-12-29T12:00:45;70.03;;;47.97;;
12784;SDS011;6456;42.680;23.260;2023-12-29T12:03:14;70.43;;;47.13;;
12784;SDS011;6456;42.680;23.260;2023-12-29T12:05:47;57.20;;;40.87;;
12784;SDS011;6456;42.680;23.260;2023-12-29T12:08:28;57.40;;;41.40;;
12784;SDS011;6456;42.680;23.260;2023-12-29T12:14:01;55.67;;;41.00;;
12784;SDS011;6456;42.680;23.260;2023-12-29T12:19:15;58.77;;;39.17;;
12784;SDS011;6456;42.680;23.260;2023-12-29T12:21:45;61.87;;;39.50;;
12784;SDS011;6456;42.680;23.260;2023-12-29T12:24:14;52.40;;;37.93;;
12784;SDS011;6456;42.680;23.260;2023-12-29T12:26:42;49.37;;;34.47;;
12784;SDS011;6456;42.680;23.260;2023-12-29T12:29:09;50.33;;;30.10;;
12784;SDS011;6456;42.680;23.260;2023-12-29T12:31:52;33.97;;;26.00;;
12784;SDS011;6456;42.680;23.260;2023-12-29T12:34:20;35.60;;;24.67;;
12784;SDS011;6456;42.680;23.260;2023-12-29T12:36:47;26.53;;;18.77;;
12784;SDS011;6456;42.680;23.260;2023-12-29T12:39:16;21.90;;;14.07;;
12784;SDS011;6456;42.680;23.260;2023-12-29T12:41:43;14.53;;;9.27;;
12784;SDS011;6456;42.680;23.260;2023-12-29T12:44:11;14.23;;;10.10;;
12784;SDS011;6456;42.680;23.260;2023-12-29T12:46:49;17.13;;;9.57;;
12784;SDS011;6456;42.680;23.260;2023-12-29T12:49:22;13.30;;;9.50;;
12784;SDS011;6456;42.680;23.260;2023-12-29T12:51:54;14.67;;;9.43;;
12784;SDS011;6456;42.680;23.260;2023-12-29T12:54:22;14.60;;;9.43;;
12784;SDS011;6456;42.680;23.260;2023-12-29T12:56:52;10.93;;;8.30;;
12784;SDS011;6456;42.680;23.260;2023-12-29T12:59:20;13.67;;;9.10;;
12784;SDS011;6456;42.680;23.260;2023-12-29T13:01:52;15.07;;;10.33;;
12784;SDS011;6456;42.680;23.260;2023-12-29T13:04:20;11.27;;;8.37;;
12784;SDS011;6456;42.680;23.260;2023-12-29T13:06:47;14.77;;;9.07;;
12784;SDS011;6456;42.680;23.260;2023-12-29T13:09:15;14.73;;;8.90;;
12784;SDS011;6456;42.680;23.260;2023-12-29T13:11:44;14.53;;;9.43;;
12784;SDS011;6456;42.680;23.260;2023-12-29T13:14:19;24.67;;;9.07;;
12784;SDS011;6456;42.680;23.260;2023-12-29T13:16:51;15.30;;;8.80;;
12784;SDS011;6456;42.680;23.260;2023-12-29T13:19:39;11.47;;;9.00;;
12784;SDS011;6456;42.680;23.260;2023-12-29T13:22:07;12.73;;;7.63;;
12784;SDS011;6456;42.680;23.260;2023-12-29T13:24:38;11.57;;;7.67;;
12784;SDS011;6456;42.680;23.260;2023-12-29T13:27:12;10.47;;;7.27;;
12784;SDS011;6456;42.680;23.260;2023-12-29T13:29:40;9.40;;;6.93;;
12784;SDS011;6456;42.680;23.260;2023-12-29T13:32:10;9.10;;;6.87;;
12784;SDS011;6456;42.680;23.260;2023-12-29T13:35:02;10.77;;;6.77;;
12784;SDS011;6456;42.680;23.260;2023-12-29T13:37:34;10.70;;;6.57;;
12784;SDS011;6456;42.680;23.260;2023-12-29T13:40:08;11.40;;;7.27;;
12784;SDS011;6456;42.680;23.260;2023-12-29T13:42:39;11.00;;;6.17;;
12784;SDS011;6456;42.680;23.260;2023-12-29T13:45:10;12.80;;;6.47;;
12784;SDS011;6456;42.680;23.260;2023-12-29T13:47:39;11.07;;;6.80;;
12784;SDS011;6456;42.680;23.260;2023-12-29T13:50:08;15.53;;;7.17;;
12784;SDS011;6456;42.680;23.260;2023-12-29T13:52:36;9.90;;;6.60;;
12784;SDS011;6456;42.680;23.260;2023-12-29T13:55:04;12.13;;;6.37;;
12784;SDS011;6456;42.680;23.260;2023-12-29T13:57:32;12.07;;;6.70;;
12784;SDS011;6456;42.680;23.260;2023-12-29T14:00:13;10.33;;;6.00;;
12784;SDS011;6456;42.680;23.260;2023-12-29T14:02:41;10.80;;;5.13;;
12784;SDS011;6456;42.680;23.260;2023-12-29T14:05:14;5.63;;;4.43;;
12784;SDS011;6456;42.680;23.260;2023-12-29T14:07:45;9.47;;;5.10;;
12784;SDS011;6456;42.680;23.260;2023-12-29T14:10:16;6.83;;;4.57;;
12784;SDS011;6456;42.680;23.260;2023-12-29T14:12:44;8.17;;;5.00;;
12784;SDS011;6456;42.680;23.260;2023-12-29T14:15:12;8.50;;;4.57;;
12784;SDS011;6456;42.680;23.260;2023-12-29T14:17:39;9.03;;;4.57;;
12784;SDS011;6456;42.680;23.260;2023-12-29T14:20:06;8.93;;;4.80;;
12784;SDS011;6456;42.680;23.260;2023-12-29T14:22:36;13.20;;;5.20;;
12784;SDS011;6456;42.680;23.260;2023-12-29T14:25:03;8.10;;;4.63;;
12784;SDS011;6456;42.680;23.260;2023-12-29T14:27:33;9.63;;;4.77;;
12784;SDS011;6456;42.680;23.260;2023-12-29T14:30:00;17.57;;;10.83;;
12784;SDS011;6456;42.680;23.260;2023-12-29T14:32:27;12.30;;;7.83;;
12784;SDS011;6456;42.680;23.260;2023-12-29T14:34:55;11.83;;;6.20;;
12784;SDS011;6456;42.680;23.260;2023-12-29T14:37:22;12.40;;;6.27;;
12784;SDS011;6456;42.680;23.260;2023-12-29T14:39:52;11.07;;;6.20;;
12784;SDS011;6456;42.680;23.260;2023-12-29T14:42:20;9.57;;;6.07;;
12784;SDS011;6456;42.680;23.260;2023-12-29T14:44:47;13.17;;;6.07;;
12784;SDS011;6456;42.680;23.260;2023-12-29T14:47:14;12.30;;;6.53;;
12784;SDS011;6456;42.680;23.260;2023-12-29T14:49:42;11.80;;;6.60;;
12784;SDS011;6456;42.680;23.260;2023-12-29T14:52:10;10.87;;;7.07;;
12784;SDS011;6456;42.680;23.260;2023-12-29T14:54:37;16.93;;;9.23;;
12784;SDS011;6456;42.680;23.260;2023-12-29T14:57:06;13.33;;;7.90;;
12784;SDS011;6456;42.680;23.260;2023-12-29T14:59:33;17.13;;;8.93;;